Time;durP1;ratioP1;P1;durP2;ratioP2;P2;SDS_P1;SDS_P2;PMS_P1;PMS_P2;Temp;Humidity;BMP_temperature;BMP_pressure;BME280_temperature;BME280_humidity;BME280_pressure;Samples;Min_cycle;Max_cycle;Signal;HPM_P1;HPM_P2
2021/07/15 00:00:37;;;;;;;3.60;3.30;;;;;24.30;99928.00;;;;2059019;28;20214;-66
2021/07/15 00:01:38;;;;;;;4.00;3.70;;;;;24.30;99932.00;;;;2058736;28;20215;-66
2021/07/15 00:02:38;;;;;;;3.03;2.73;;;;;24.30;99932.00;;;;2058943;28;20258;-65
2021/07/15 00:03:38;;;;;;;3.50;3.17;;;;;24.30;99937.00;;;;2058672;28;20660;-66
2021/07/15 00:04:39;;;;;;;3.03;2.83;;;;;24.30;99937.00;;;;2062332;28;20207;-65
2021/07/15 00:05:39;;;;;;;3.37;3.07;;;;;24.30;99939.00;;;;2060673;28;20218;-65
2021/07/15 00:06:40;;;;;;;2.87;2.67;;;;;24.30;99943.00;;;;2053035;28;20683;-65
2021/07/15 00:07:40;;;;;;;3.30;3.03;;;;;24.30;99940.00;;;;2050891;28;21089;-65
2021/07/15 00:08:44;;;;;;;4.10;3.80;;;;;24.30;99946.00;;;;2059250;28;20273;-65
2021/07/15 00:09:45;;;;;;;3.40;3.10;;;;;24.30;99954.00;;;;2058641;28;20705;-66
2021/07/15 00:11:00;;;;;;;3.27;2.97;;;;;24.30;99941.00;;;;2058062;28;20277;-66
2021/07/15 00:12:01;;;;;;;3.50;3.20;;;;;24.30;99951.00;;;;2058744;28;20302;-65
2021/07/15 00:13:01;;;;;;;3.17;2.87;;;;;24.30;99946.00;;;;2057842;28;20223;-65
2021/07/15 00:14:02;;;;;;;3.67;3.37;;;;;24.30;99943.00;;;;2059634;28;20210;-66
2021/07/15 00:15:05;;;;;;;3.47;3.17;;;;;24.30;99945.00;;;;2058865;28;20450;-66
2021/07/15 00:16:08;;;;;;;3.00;2.70;;;;;24.30;99944.00;;;;2058644;28;20218;-66
2021/07/15 00:17:09;;;;;;;3.42;3.13;;;;;24.30;99944.00;;;;2058971;28;20303;-66
2021/07/15 00:18:09;;;;;;;3.17;2.90;;;;;24.30;99941.00;;;;2058942;28;20692;-66
2021/07/15 00:19:12;;;;;;;3.30;2.87;;;;;24.30;99935.00;;;;2058774;28;20250;-66
2021/07/15 00:20:13;;;;;;;3.03;2.70;;;;;24.30;99931.00;;;;2059322;28;20451;-65
2021/07/15 00:21:15;;;;;;;2.97;2.78;;;;;24.30;99927.00;;;;2059913;28;20669;-65
2021/07/15 00:22:15;;;;;;;2.90;2.70;;;;;24.30;99922.00;;;;2059063;28;20218;-66
2021/07/15 00:23:15;;;;;;;3.10;2.90;;;;;24.30;99926.00;;;;2059006;28;20222;-67
2021/07/15 00:24:17;;;;;;;2.80;2.60;;;;;24.30;99926.00;;;;2058911;28;20207;-65
2021/07/15 00:25:19;;;;;;;3.30;3.00;;;;;24.30;99934.00;;;;2058997;28;20310;-66
2021/07/15 00:26:23;;;;;;;3.63;3.20;;;;;24.30;99927.00;;;;2059097;28;20219;-65
2021/07/15 00:27:23;;;;;;;2.78;2.58;;;;;24.30;99931.00;;;;2059913;28;20215;-66
2021/07/15 00:28:24;;;;;;;3.03;2.73;;;;;24.30;99935.00;;;;2059834;28;20233;-66
2021/07/15 00:29:24;;;;;;;3.37;2.90;;;;;24.30;99932.00;;;;2059794;28;20221;-66
2021/07/15 00:30:24;;;;;;;3.17;2.87;;;;;24.30;99941.00;;;;2059468;28;20298;-66
2021/07/15 00:31:25;;;;;;;3.13;2.83;;;;;24.30;99941.00;;;;2059802;28;20211;-66
2021/07/15 00:32:25;;;;;;;3.57;3.03;;;;;24.30;99940.00;;;;2060691;28;20230;-67
2021/07/15 00:33:28;;;;;;;2.63;2.43;;;;;24.30;99943.00;;;;2059036;28;20214;-67
2021/07/15 00:34:28;;;;;;;3.28;2.95;;;;;24.30;99946.00;;;;2058862;28;20203;-65
2021/07/15 00:35:29;;;;;;;3.03;2.70;;;;;24.30;99954.00;;;;2059093;28;20221;-66
2021/07/15 00:36:29;;;;;;;3.60;3.30;;;;;24.20;99954.00;;;;2058914;28;20290;-66
2021/07/15 00:37:29;;;;;;;3.50;3.20;;;;;24.30;99951.00;;;;2059131;28;20230;-66
2021/07/15 00:38:30;;;;;;;2.93;2.73;;;;;24.30;99957.00;;;;2059751;28;20223;-66
2021/07/15 00:39:30;;;;;;;2.60;2.40;;;;;24.30;99953.00;;;;2059107;28;20270;-68
2021/07/15 00:40:31;;;;;;;4.27;2.90;;;;;24.30;99953.00;;;;2059076;28;20218;-67
2021/07/15 00:41:31;;;;;;;3.17;2.80;;;;;24.30;99951.00;;;;2059802;28;20230;-65
2021/07/15 00:42:32;;;;;;;3.67;2.50;;;;;24.30;99951.00;;;;2058836;28;20206;-65
2021/07/15 00:43:32;;;;;;;3.00;2.80;;;;;24.30;99948.00;;;;2058323;28;20269;-66
2021/07/15 00:44:32;;;;;;;3.40;2.77;;;;;24.30;99952.00;;;;2058865;28;20270;-66
2021/07/15 00:45:32;;;;;;;2.83;2.63;;;;;24.30;99950.00;;;;2058348;28;20222;-66
2021/07/15 00:46:33;;;;;;;2.20;2.00;;;;;24.30;99954.00;;;;2059350;28;20226;-66
2021/07/15 00:47:33;;;;;;;3.27;2.97;;;;;24.30;99954.00;;;;2058936;28;20227;-65
2021/07/15 00:48:33;;;;;;;2.60;2.40;;;;;24.30;99957.00;;;;2058936;28;20239;-66
2021/07/15 00:49:34;;;;;;;2.57;2.37;;;;;24.30;99955.00;;;;2060719;28;20776;-66
2021/07/15 00:50:34;;;;;;;3.03;2.83;;;;;24.30;99949.00;;;;2061548;28;21267;-65
2021/07/15 00:51:34;;;;;;;2.60;2.40;;;;;24.30;99950.00;;;;2061075;28;20219;-66
2021/07/15 00:52:36;;;;;;;3.53;2.53;;;;;24.30;99950.00;;;;2059617;28;20229;-66
2021/07/15 00:53:37;;;;;;;2.92;2.63;;;;;24.30;99945.00;;;;2059530;28;20211;-67
2021/07/15 00:54:41;;;;;;;3.10;2.80;;;;;24.30;99943.00;;;;2043253;29;20264;-65
2021/07/15 00:55:42;;;;;;;3.65;3.35;;;;;24.30;99938.00;;;;2027609;29;20226;-65
2021/07/15 00:56:43;;;;;;;3.50;2.60;;;;;24.30;99938.00;;;;2045996;28;20219;-66
2021/07/15 00:57:43;;;;;;;2.73;2.53;;;;;24.30;99936.00;;;;2050074;28;20498;-67
2021/07/15 00:58:43;;;;;;;3.17;2.90;;;;;24.30;99932.00;;;;2050994;28;20295;-65
2021/07/15 00:59:44;;;;;;;3.30;2.67;;;;;24.30;99933.00;;;;2059540;28;20216;-65
2021/07/15 01:00:46;;;;;;;2.20;2.00;;;;;24.30;99890.00;;;;2050500;28;20299;-65
2021/07/15 01:01:47;;;;;;;3.10;2.78;;;;;24.30;99935.00;;;;2058743;28;20584;-65
2021/07/15 01:02:48;;;;;;;3.07;2.77;;;;;24.30;99929.00;;;;2067064;28;20206;-65
2021/07/15 01:03:50;;;;;;;3.87;2.43;;;;;24.20;99939.00;;;;2066741;28;20568;-66
2021/07/15 01:04:50;;;;;;;2.83;2.63;;;;;24.30;99945.00;;;;2069010;28;20225;-66
2021/07/15 01:05:53;;;;;;;2.00;1.83;;;;;24.30;99936.00;;;;2067512;28;20241;-69
2021/07/15 01:06:53;;;;;;;2.55;2.35;;;;;24.30;99945.00;;;;2066724;28;20210;-65
2021/07/15 01:07:54;;;;;;;4.43;2.63;;;;;24.30;99939.00;;;;2066834;28;20212;-65
2021/07/15 01:08:54;;;;;;;2.63;2.43;;;;;24.30;99938.00;;;;2066846;28;20214;-66
2021/07/15 01:09:55;;;;;;;2.40;2.20;;;;;24.30;99941.00;;;;2066657;28;20246;-66
2021/07/15 01:11:18;;;;;;;2.67;2.47;;;;;24.20;99949.00;;;;2066488;28;20219;-66
2021/07/15 01:12:47;;;;;;;3.15;2.88;;;;;24.30;99933.00;;;;2049419;28;20207;-66
2021/07/15 01:14:07;;;;;;;2.60;2.40;;;;;24.30;99929.00;;;;2050670;28;20246;-66
2021/07/15 01:15:12;;;;;;;2.50;2.30;;;;;24.20;99930.00;;;;2061066;28;20273;-66
2021/07/15 01:16:18;;;;;;;2.75;2.53;;;;;24.20;99927.00;;;;2067422;28;20676;-65
2021/07/15 01:17:20;;;;;;;3.03;2.42;;;;;24.30;99921.00;;;;2055551;28;20211;-65
2021/07/15 01:18:44;;;;;;;2.67;2.47;;;;;24.30;99922.00;;;;2042324;29;20314;-67
2021/07/15 01:20:34;;;;;;;3.30;2.28;;;;;24.30;99912.00;;;;2037120;29;20227;-67
2021/07/15 01:22:05;;;;;;;2.50;2.30;;;;;24.20;99924.00;;;;2052621;28;20230;-66
2021/07/15 01:23:40;;;;;;;2.65;2.45;;;;;24.30;99930.00;;;;2062003;28;20932;-65
2021/07/15 01:25:11;;;;;;;3.05;2.40;;;;;24.20;99931.00;;;;2065926;28;20229;-65
2021/07/15 01:26:31;;;;;;;2.80;2.60;;;;;24.20;99931.00;;;;2063479;28;20593;-67
2021/07/15 01:28:01;;;;;;;2.55;2.35;;;;;24.20;99939.00;;;;2070149;28;20218;-67
2021/07/15 01:29:17;;;;;;;2.95;2.60;;;;;24.30;99937.00;;;;2069217;28;20209;-67
2021/07/15 01:30:46;;;;;;;2.70;2.50;;;;;24.20;99937.00;;;;2053772;28;20227;-66
2021/07/15 01:31:47;;;;;;;2.92;2.72;;;;;24.20;99930.00;;;;2045834;28;20294;-66
2021/07/15 01:33:15;;;;;;;2.60;2.40;;;;;24.20;99931.00;;;;2042489;29;20212;-65
2021/07/15 01:34:16;;;;;;;3.95;2.80;;;;;24.20;99938.00;;;;2042143;28;20926;-67
2021/07/15 01:35:17;;;;;;;3.03;2.70;;;;;24.20;99937.00;;;;2042499;28;20216;-66
2021/07/15 01:36:19;;;;;;;2.45;2.25;;;;;24.20;99940.00;;;;2034383;29;20227;-66
2021/07/15 01:37:19;;;;;;;2.50;2.30;;;;;24.20;99934.00;;;;2034472;29;20209;-66
2021/07/15 01:38:24;;;;;;;3.00;2.40;;;;;24.20;99941.00;;;;2042162;28;20263;-67
2021/07/15 01:39:30;;;;;;;2.33;2.13;;;;;24.20;99945.00;;;;2065512;28;20728;-66
2021/07/15 01:41:14;;;;;;;3.00;2.50;;;;;24.20;99944.00;;;;2049550;28;20222;-66
2021/07/15 01:42:14;;;;;;;2.55;2.10;;;;;24.20;99948.00;;;;2044062;28;20589;-66
2021/07/15 01:43:18;;;;;;;4.03;2.27;;;;;24.30;99951.00;;;;2042753;29;20228;-66
2021/07/15 01:44:20;;;;;;;3.05;2.75;;;;;24.20;99953.00;;;;2042772;29;20830;-66
2021/07/15 01:45:20;;;;;;;3.05;2.80;;;;;24.20;99947.00;;;;2042048;29;20280;-66
2021/07/15 01:46:20;;;;;;;2.23;2.03;;;;;24.20;99949.00;;;;2041995;29;20224;-66
2021/07/15 01:47:21;;;;;;;2.43;2.23;;;;;24.30;99936.00;;;;2042072;29;20346;-66
2021/07/15 01:48:22;;;;;;;2.70;2.50;;;;;24.30;99940.00;;;;2050618;28;20248;-66
2021/07/15 01:49:23;;;;;;;3.25;2.30;;;;;24.20;99933.00;;;;2059195;28;20223;-65
2021/07/15 01:50:23;;;;;;;2.60;2.40;;;;;24.20;99938.00;;;;2058824;28;20212;-66
2021/07/15 01:51:24;;;;;;;3.03;2.50;;;;;24.20;99943.00;;;;2059074;28;20215;-67
2021/07/15 01:52:25;;;;;;;3.37;3.07;;;;;24.20;99933.00;;;;2050327;28;20212;-66
2021/07/15 01:53:25;;;;;;;3.80;2.60;;;;;24.20;99939.00;;;;2038502;29;20344;-66
2021/07/15 01:54:26;;;;;;;2.80;2.60;;;;;24.20;99939.00;;;;2038825;29;20444;-65
2021/07/15 01:55:27;;;;;;;2.63;2.37;;;;;24.20;99947.00;;;;2051452;28;20722;-65
2021/07/15 01:56:27;;;;;;;4.20;2.80;;;;;24.20;99950.00;;;;2063490;28;20550;-66
2021/07/15 01:57:27;;;;;;;2.43;2.23;;;;;24.20;99950.00;;;;2060192;28;20214;-67
2021/07/15 01:58:29;;;;;;;3.13;2.83;;;;;24.20;99955.00;;;;2045856;28;20213;-65
2021/07/15 01:59:31;;;;;;;2.90;2.60;;;;;24.20;99955.00;;;;2046431;28;20234;-66
2021/07/15 02:00:31;;;;;;;2.63;2.28;;;;;24.20;99957.00;;;;2051306;28;21075;-65
2021/07/15 02:01:31;;;;;;;2.33;2.13;;;;;24.20;99955.00;;;;2044278;29;20217;-65
2021/07/15 02:02:32;;;;;;;2.70;2.50;;;;;24.20;99960.00;;;;2052166;28;20306;-66
2021/07/15 02:03:33;;;;;;;2.20;2.00;;;;;24.30;99954.00;;;;2043981;29;20224;-65
2021/07/15 02:04:34;;;;;;;3.20;2.50;;;;;24.20;99958.00;;;;2044160;28;20235;-67
2021/07/15 02:05:35;;;;;;;3.00;2.70;;;;;24.20;99961.00;;;;2044220;28;20824;-65
2021/07/15 02:06:35;;;;;;;2.33;2.13;;;;;24.20;99950.00;;;;2044524;28;20309;-65
2021/07/15 02:07:36;;;;;;;2.70;2.50;;;;;24.20;99955.00;;;;2047960;29;20448;-65
2021/07/15 02:08:37;;;;;;;2.40;2.20;;;;;24.20;99951.00;;;;2052010;28;20262;-67
2021/07/15 02:09:37;;;;;;;2.83;2.63;;;;;24.20;99951.00;;;;2051257;28;20225;-67
2021/07/15 02:10:38;;;;;;;2.13;2.00;;;;;24.20;99950.00;;;;2051047;28;20227;-65
2021/07/15 02:11:39;;;;;;;2.33;2.13;;;;;24.20;99950.00;;;;2043356;29;20225;-65
2021/07/15 02:12:39;;;;;;;2.40;2.20;;;;;24.20;99944.00;;;;2043642;28;20644;-65
2021/07/15 02:13:41;;;;;;;2.53;2.30;;;;;24.20;99951.00;;;;2044258;29;20221;-65
2021/07/15 02:14:41;;;;;;;3.33;3.03;;;;;24.20;99952.00;;;;2052043;28;20404;-65
2021/07/15 02:15:41;;;;;;;2.30;2.10;;;;;24.20;99951.00;;;;2044325;29;20263;-65
2021/07/15 02:16:46;;;;;;;3.03;2.47;;;;;24.20;99951.00;;;;2052143;28;20200;-66
2021/07/15 02:17:46;;;;;;;2.58;2.38;;;;;24.20;99955.00;;;;2051087;28;20574;-66
2021/07/15 02:18:47;;;;;;;3.43;2.20;;;;;24.30;99944.00;;;;2051430;28;20220;-65
2021/07/15 02:19:47;;;;;;;2.23;2.00;;;;;24.20;99953.00;;;;2051280;28;20232;-67
2021/07/15 02:20:50;;;;;;;2.40;2.20;;;;;24.20;99949.00;;;;2042816;29;20236;-67
2021/07/15 02:21:50;;;;;;;2.50;2.30;;;;;24.20;99954.00;;;;2052287;28;20299;-66
2021/07/15 02:22:51;;;;;;;3.00;2.70;;;;;24.30;99952.00;;;;2051795;28;20235;-66
2021/07/15 02:23:51;;;;;;;2.30;2.10;;;;;24.20;99950.00;;;;2043809;28;20215;-67
2021/07/15 02:24:52;;;;;;;2.33;2.13;;;;;24.30;99956.00;;;;2051359;28;20727;-67
2021/07/15 02:25:52;;;;;;;2.63;2.43;;;;;24.20;99959.00;;;;2043498;29;20247;-65
2021/07/15 02:26:54;;;;;;;2.40;2.20;;;;;24.20;99957.00;;;;2040261;29;20212;-65
2021/07/15 02:27:55;;;;;;;2.38;2.05;;;;;24.20;99965.00;;;;2055995;28;20686;-66
2021/07/15 02:28:55;;;;;;;2.00;1.80;;;;;24.20;99944.00;;;;2054014;28;20224;-65
2021/07/15 02:29:56;;;;;;;2.33;2.07;;;;;24.20;99952.00;;;;2050887;28;20508;-65
2021/07/15 02:31:09;;;;;;;2.27;2.07;;;;;24.20;99938.00;;;;2050679;28;20296;-67
2021/07/15 02:32:10;;;;;;;2.60;2.40;;;;;24.20;99946.00;;;;2041347;29;20219;-67
2021/07/15 02:33:12;;;;;;;2.33;2.13;;;;;24.20;99943.00;;;;2028208;29;20214;-67
2021/07/15 02:34:24;;;;;;;2.58;2.08;;;;;24.20;99944.00;;;;2044388;28;20685;-65
2021/07/15 02:35:26;;;;;;;3.45;2.40;;;;;24.20;99946.00;;;;2038541;29;20217;-66
2021/07/15 02:36:28;;;;;;;3.83;2.10;;;;;24.20;99947.00;;;;2044172;28;20279;-67
2021/07/15 02:37:39;;;;;;;2.30;2.10;;;;;24.20;99950.00;;;;2043998;29;20295;-65
2021/07/15 02:38:39;;;;;;;2.30;2.10;;;;;24.20;99957.00;;;;2044925;28;20220;-66
2021/07/15 02:39:39;;;;;;;4.43;2.00;;;;;24.20;99945.00;;;;2048846;28;20220;-67
2021/07/15 02:40:40;;;;;;;2.23;2.03;;;;;24.20;99957.00;;;;2042394;29;20295;-65
2021/07/15 02:41:40;;;;;;;2.10;1.90;;;;;24.20;99948.00;;;;2043074;29;20216;-66
2021/07/15 02:42:42;;;;;;;2.53;2.20;;;;;24.20;99949.00;;;;2042721;29;20220;-67
2021/07/15 02:43:43;;;;;;;1.80;1.70;;;;;24.20;99951.00;;;;2059615;28;20208;-65
2021/07/15 02:44:43;;;;;;;1.80;1.70;;;;;24.20;99941.00;;;;2051725;28;20686;-66
2021/07/15 02:45:43;;;;;;;1.73;1.63;;;;;24.20;99951.00;;;;2043955;29;20221;-65
2021/07/15 02:46:44;;;;;;;2.37;2.17;;;;;24.20;99941.00;;;;2051888;28;20248;-66
2021/07/15 02:47:45;;;;;;;2.57;2.00;;;;;24.20;99943.00;;;;2060792;28;21110;-66
2021/07/15 02:48:45;;;;;;;2.37;2.17;;;;;24.30;99940.00;;;;2051725;28;20227;-66
2021/07/15 02:49:45;;;;;;;2.10;1.90;;;;;24.20;99938.00;;;;2051444;28;20463;-66
2021/07/15 02:50:46;;;;;;;2.13;2.03;;;;;24.20;99938.00;;;;2059225;28;20215;-66
2021/07/15 02:51:46;;;;;;;1.93;1.70;;;;;24.20;99936.00;;;;2060118;28;20216;-65
2021/07/15 02:52:55;;;;;;;1.90;1.80;;;;;24.20;99946.00;;;;2059712;28;20258;-66
2021/07/15 02:53:56;;;;;;;3.55;2.00;;;;;24.20;99946.00;;;;2059864;28;20554;-66
2021/07/15 02:54:56;;;;;;;2.90;1.93;;;;;24.20;99947.00;;;;2059941;28;20262;-66
2021/07/15 02:56:21;;;;;;;1.90;1.73;;;;;24.20;99947.00;;;;2059735;28;20212;-66
2021/07/15 02:57:51;;;;;;;1.75;1.65;;;;;24.20;99954.00;;;;2043769;28;20213;-65
2021/07/15 02:59:00;;;;;;;2.13;1.88;;;;;24.20;99938.00;;;;2024683;28;20223;-66
2021/07/15 03:00:08;;;;;;;2.45;1.95;;;;;24.20;99942.00;;;;2051717;28;20283;-66
2021/07/15 03:01:10;;;;;;;3.03;1.52;;;;;24.20;99949.00;;;;2051327;28;20241;-66
2021/07/15 03:02:27;;;;;;;1.80;1.70;;;;;24.20;99954.00;;;;2050151;28;20215;-65
2021/07/15 03:03:46;;;;;;;2.45;1.80;;;;;24.20;99944.00;;;;2044882;29;20220;-66
2021/07/15 03:05:07;;;;;;;1.50;1.40;;;;;24.20;99930.00;;;;2055310;28;20218;-66
2021/07/15 03:06:12;;;;;;;1.70;1.60;;;;;24.20;99935.00;;;;2049884;28;20216;-65
2021/07/15 03:07:12;;;;;;;1.70;1.42;;;;;24.20;99941.00;;;;2044004;29;20216;-67
2021/07/15 03:08:17;;;;;;;2.13;2.00;;;;;24.20;99941.00;;;;2052003;28;20715;-67
2021/07/15 03:09:29;;;;;;;2.22;2.03;;;;;24.20;99950.00;;;;2044495;28;20221;-65
2021/07/15 03:10:29;;;;;;;2.40;2.03;;;;;24.20;99956.00;;;;2043033;28;20212;-66
2021/07/15 03:11:36;;;;;;;1.73;1.50;;;;;24.20;99954.00;;;;2034954;29;21159;-66
2021/07/15 03:12:37;;;;;;;1.30;1.20;;;;;24.20;99962.00;;;;2036845;28;20774;-67
2021/07/15 03:13:37;;;;;;;2.37;1.73;;;;;24.20;99968.00;;;;2043301;29;20259;-65
2021/07/15 03:14:38;;;;;;;2.40;1.70;;;;;24.20;99970.00;;;;2051623;28;20231;-65
2021/07/15 03:15:40;;;;;;;1.30;1.20;;;;;24.20;99966.00;;;;2044072;29;20225;-66
2021/07/15 03:16:41;;;;;;;1.83;1.60;;;;;24.20;99971.00;;;;2044325;28;20539;-66
2021/07/15 03:17:44;;;;;;;1.75;1.63;;;;;24.20;99968.00;;;;2051247;28;20251;-67
2021/07/15 03:18:45;;;;;;;1.80;1.70;;;;;24.20;99978.00;;;;2046544;28;20303;-67
2021/07/15 03:19:46;;;;;;;1.70;1.53;;;;;24.20;99974.00;;;;2043003;29;20790;-67
2021/07/15 03:20:47;;;;;;;1.40;1.30;;;;;24.20;99970.00;;;;2035050;28;20218;-67
2021/07/15 03:21:47;;;;;;;1.93;1.60;;;;;24.20;99965.00;;;;2043630;28;20364;-65
2021/07/15 03:22:49;;;;;;;1.53;1.37;;;;;24.20;99963.00;;;;2043703;29;20221;-65
2021/07/15 03:23:50;;;;;;;2.00;1.80;;;;;24.20;99960.00;;;;2043906;28;20216;-65
2021/07/15 03:24:52;;;;;;;1.57;1.47;;;;;24.20;99957.00;;;;2040777;29;20229;-65
2021/07/15 03:25:54;;;;;;;1.85;1.65;;;;;24.20;99958.00;;;;2043152;29;20227;-66
2021/07/15 03:26:55;;;;;;;1.55;1.45;;;;;24.20;99953.00;;;;2056190;28;20211;-67
2021/07/15 03:27:56;;;;;;;1.33;1.23;;;;;24.20;99953.00;;;;2055438;28;20271;-67
2021/07/15 03:28:56;;;;;;;1.30;1.20;;;;;24.20;99959.00;;;;2045149;28;20452;-65
2021/07/15 03:29:58;;;;;;;1.87;1.67;;;;;24.20;99960.00;;;;2034982;29;20615;-67
2021/07/15 03:31:10;;;;;;;1.52;1.42;;;;;24.20;99977.00;;;;2026318;29;20218;-67
2021/07/15 03:32:11;;;;;;;1.40;1.30;;;;;24.20;99985.00;;;;2045613;28;20270;-66
2021/07/15 03:33:11;;;;;;;1.63;1.30;;;;;24.20;99974.00;;;;2042346;29;20251;-65
2021/07/15 03:34:11;;;;;;;2.10;1.90;;;;;24.20;99976.00;;;;2041661;29;20258;-65
2021/07/15 03:35:13;;;;;;;1.77;1.63;;;;;24.20;99973.00;;;;2050593;28;20656;-65
2021/07/15 03:36:13;;;;;;;1.40;1.30;;;;;24.20;99983.00;;;;2035572;28;20220;-67
2021/07/15 03:37:14;;;;;;;2.20;1.40;;;;;24.20;99977.00;;;;2043357;29;20239;-66
2021/07/15 03:38:15;;;;;;;1.98;1.75;;;;;24.20;99984.00;;;;2050907;28;20250;-66
2021/07/15 03:39:17;;;;;;;1.77;1.53;;;;;24.10;99992.00;;;;2050584;28;20212;-66
2021/07/15 03:40:20;;;;;;;3.92;1.50;;;;;24.20;99995.00;;;;2038293;29;20243;-67
2021/07/15 03:41:21;;;;;;;1.55;1.13;;;;;24.20;100002.00;;;;2046565;28;20216;-65
2021/07/15 03:42:21;;;;;;;1.40;1.30;;;;;24.20;100001.00;;;;2042075;28;20722;-66
2021/07/15 03:43:22;;;;;;;1.77;1.60;;;;;24.20;100000.00;;;;2042729;28;20751;-65
2021/07/15 03:44:22;;;;;;;2.60;1.67;;;;;24.20;99998.00;;;;2059105;28;20255;-66
2021/07/15 03:45:23;;;;;;;1.30;1.20;;;;;24.10;100005.00;;;;2050572;28;20216;-65
2021/07/15 03:46:23;;;;;;;1.60;1.50;;;;;24.10;100005.00;;;;2051084;28;20297;-66
2021/07/15 03:47:23;;;;;;;1.33;1.23;;;;;24.20;100009.00;;;;2042738;29;20223;-66
2021/07/15 03:48:25;;;;;;;2.03;1.60;;;;;24.20;100017.00;;;;2034774;29;20213;-66
2021/07/15 03:49:29;;;;;;;1.70;1.10;;;;;24.20;100010.00;;;;2044763;28;20620;-65
2021/07/15 03:50:30;;;;;;;3.15;1.20;;;;;24.20;100013.00;;;;2057861;28;20355;-66
2021/07/15 03:51:33;;;;;;;1.15;1.05;;;;;24.20;100016.00;;;;2058943;28;20678;-67
2021/07/15 03:52:33;;;;;;;1.38;1.27;;;;;24.20;100012.00;;;;2058146;28;20694;-66
2021/07/15 03:53:34;;;;;;;1.27;1.17;;;;;24.10;100016.00;;;;2042002;29;20320;-65
2021/07/15 03:54:34;;;;;;;1.50;1.07;;;;;24.10;100023.00;;;;2042437;29;20233;-65
2021/07/15 03:55:35;;;;;;;1.40;1.30;;;;;24.10;100027.00;;;;2051587;28;20945;-65
2021/07/15 03:56:37;;;;;;;1.80;1.20;;;;;24.10;100031.00;;;;2056893;28;20250;-66
2021/07/15 03:57:38;;;;;;;1.30;1.15;;;;;24.10;100024.00;;;;2051210;28;20324;-65
2021/07/15 03:58:41;;;;;;;1.47;1.07;;;;;24.10;100027.00;;;;2049722;28;20227;-66
2021/07/15 03:59:50;;;;;;;2.50;1.42;;;;;24.10;100037.00;;;;2043768;28;20223;-66
2021/07/15 04:00:51;;;;;;;1.48;1.35;;;;;24.10;100002.00;;;;2044291;28;20687;-66
2021/07/15 04:02:01;;;;;;;1.30;1.20;;;;;24.10;100037.00;;;;2043102;28;20212;-66
2021/07/15 04:03:02;;;;;;;1.63;1.20;;;;;24.10;100036.00;;;;2051371;28;20211;-67
2021/07/15 04:04:05;;;;;;;1.63;1.53;;;;;24.10;100038.00;;;;2051361;28;20706;-65
2021/07/15 04:05:06;;;;;;;1.48;1.13;;;;;24.20;100044.00;;;;2042993;29;20275;-65
2021/07/15 04:06:07;;;;;;;1.60;1.50;;;;;24.20;100035.00;;;;2042264;29;20255;-65
2021/07/15 04:07:08;;;;;;;1.10;1.00;;;;;24.20;100039.00;;;;2034173;29;20486;-65
2021/07/15 04:08:08;;;;;;;1.20;1.10;;;;;24.20;100041.00;;;;2042068;28;20463;-66
2021/07/15 04:09:09;;;;;;;1.87;1.50;;;;;24.20;100040.00;;;;2051252;28;20216;-66
2021/07/15 04:10:11;;;;;;;1.80;1.70;;;;;24.20;100043.00;;;;2039100;29;20208;-67
2021/07/15 04:11:13;;;;;;;1.58;1.40;;;;;24.20;100036.00;;;;2031652;29;20321;-66
2021/07/15 04:12:14;;;;;;;1.40;1.30;;;;;24.20;100040.00;;;;2043531;28;20235;-67
2021/07/15 04:13:14;;;;;;;1.30;1.20;;;;;24.20;100035.00;;;;2035654;29;20273;-65
2021/07/15 04:14:18;;;;;;;1.70;1.50;;;;;24.20;100031.00;;;;2035674;29;20221;-65
2021/07/15 04:15:19;;;;;;;1.50;1.33;;;;;24.20;100026.00;;;;2051352;28;20218;-66
2021/07/15 04:16:29;;;;;;;2.13;1.63;;;;;24.20;100023.00;;;;2059305;28;20218;-65
2021/07/15 04:17:31;;;;;;;1.60;1.50;;;;;24.20;100031.00;;;;2050460;28;20467;-65
2021/07/15 04:18:37;;;;;;;1.70;1.60;;;;;24.20;100021.00;;;;2043304;28;20215;-65
2021/07/15 04:19:37;;;;;;;1.40;1.30;;;;;24.20;100013.00;;;;2052110;28;20232;-66
2021/07/15 04:20:38;;;;;;;1.70;1.23;;;;;24.20;100013.00;;;;2059245;28;20219;-65
2021/07/15 04:21:38;;;;;;;1.60;1.50;;;;;24.20;100011.00;;;;2043171;29;20215;-65
2021/07/15 04:22:39;;;;;;;1.23;1.13;;;;;24.20;100017.00;;;;2034978;29;20217;-65
2021/07/15 04:23:39;;;;;;;1.90;1.27;;;;;24.10;100021.00;;;;2050696;28;20224;-65
2021/07/15 04:24:40;;;;;;;1.40;1.30;;;;;24.10;100016.00;;;;2050727;28;20455;-67
2021/07/15 04:25:42;;;;;;;1.50;1.40;;;;;24.20;100012.00;;;;2050529;28;20630;-67
2021/07/15 04:26:43;;;;;;;1.30;1.20;;;;;24.20;100015.00;;;;2053942;28;20694;-65
2021/07/15 04:27:44;;;;;;;1.60;1.50;;;;;24.20;100012.00;;;;2054983;28;20219;-66
2021/07/15 04:28:44;;;;;;;1.57;1.47;;;;;24.10;100000.00;;;;2045267;28;20208;-66
2021/07/15 04:29:44;;;;;;;1.60;1.50;;;;;24.10;100003.00;;;;2042769;29;20873;-65
2021/07/15 04:30:48;;;;;;;1.30;1.20;;;;;24.20;100005.00;;;;2034192;29;20265;-66
2021/07/15 04:32:12;;;;;;;1.30;1.20;;;;;24.20;99998.00;;;;2050954;28;20215;-66
2021/07/15 04:33:12;;;;;;;1.35;1.25;;;;;24.10;99996.00;;;;2061148;28;20577;-66
2021/07/15 04:34:12;;;;;;;1.20;1.10;;;;;24.10;99994.00;;;;2043284;29;20226;-65
2021/07/15 04:35:13;;;;;;;1.90;1.47;;;;;24.20;99987.00;;;;2042780;29;20220;-66
2021/07/15 04:36:14;;;;;;;1.90;1.30;;;;;24.20;99983.00;;;;2050632;28;20310;-66
2021/07/15 04:37:16;;;;;;;1.40;1.30;;;;;24.10;99987.00;;;;2048339;28;20280;-67
2021/07/15 04:38:16;;;;;;;1.38;1.23;;;;;24.10;99985.00;;;;2043387;29;20613;-66
2021/07/15 04:39:17;;;;;;;1.27;1.17;;;;;24.20;99983.00;;;;2035108;28;20228;-66
2021/07/15 04:40:19;;;;;;;1.33;1.23;;;;;24.20;99986.00;;;;2050607;28;20258;-67
2021/07/15 04:41:19;;;;;;;1.60;1.48;;;;;24.20;99987.00;;;;2059500;28;20731;-67
2021/07/15 04:42:19;;;;;;;1.57;1.40;;;;;24.20;99970.00;;;;2043228;29;20240;-66
2021/07/15 04:43:20;;;;;;;1.70;1.60;;;;;24.20;99971.00;;;;2034934;29;20219;-67
2021/07/15 04:44:20;;;;;;;1.67;1.40;;;;;24.20;99983.00;;;;2050028;28;20563;-66
2021/07/15 04:45:24;;;;;;;1.20;1.10;;;;;24.20;99985.00;;;;2040668;29;20232;-67
2021/07/15 04:46:25;;;;;;;2.08;1.35;;;;;24.20;99984.00;;;;2050867;28;20629;-65
2021/07/15 04:47:26;;;;;;;1.58;1.20;;;;;24.20;99970.00;;;;2043031;29;20568;-65
2021/07/15 04:48:26;;;;;;;1.63;1.37;;;;;24.20;99981.00;;;;2033911;29;20224;-66
2021/07/15 04:49:26;;;;;;;1.77;1.10;;;;;24.20;99983.00;;;;2051030;28;20219;-66
2021/07/15 04:50:28;;;;;;;1.27;1.17;;;;;24.20;99981.00;;;;2059197;28;20527;-66
2021/07/15 04:51:28;;;;;;;1.10;1.00;;;;;24.20;99979.00;;;;2058804;28;20237;-66
2021/07/15 04:52:29;;;;;;;1.40;1.30;;;;;24.20;99982.00;;;;2042480;29;20250;-66
2021/07/15 04:53:29;;;;;;;0.80;0.80;;;;;24.20;99982.00;;;;2042285;29;20212;-66
2021/07/15 04:54:29;;;;;;;1.13;1.03;;;;;24.20;99975.00;;;;2034396;29;20212;-66
2021/07/15 04:55:30;;;;;;;1.57;1.30;;;;;24.20;99984.00;;;;2035052;29;20210;-66
2021/07/15 04:56:31;;;;;;;2.80;1.23;;;;;24.20;99975.00;;;;2046123;28;20243;-66
2021/07/15 04:57:33;;;;;;;1.63;1.43;;;;;24.20;99988.00;;;;2040055;28;20587;-66
2021/07/15 04:58:33;;;;;;;1.13;1.02;;;;;24.20;99993.00;;;;2039995;29;20967;-66
2021/07/15 04:59:34;;;;;;;1.67;1.57;;;;;24.20;99997.00;;;;2050736;28;20224;-65
2021/07/15 05:00:34;;;;;;;1.80;1.03;;;;;24.20;100003.00;;;;2050709;28;20224;-65
2021/07/15 05:01:35;;;;;;;1.50;1.30;;;;;24.20;99992.00;;;;2051097;28;20224;-66
2021/07/15 05:02:36;;;;;;;0.93;0.82;;;;;24.20;100002.00;;;;2051091;28;20220;-66
2021/07/15 05:03:37;;;;;;;1.57;1.23;;;;;24.20;100008.00;;;;2049896;28;20221;-67
2021/07/15 05:04:38;;;;;;;1.50;1.38;;;;;24.20;100009.00;;;;2058786;28;20217;-65
2021/07/15 05:05:38;;;;;;;1.70;1.10;;;;;24.30;100016.00;;;;2058850;28;20238;-66
2021/07/15 05:06:38;;;;;;;1.27;1.17;;;;;24.20;100015.00;;;;2059160;28;20314;-65
2021/07/15 05:07:39;;;;;;;1.30;1.00;;;;;24.20;100015.00;;;;2059240;28;20220;-66
2021/07/15 05:08:40;;;;;;;0.85;0.85;;;;;24.20;100013.00;;;;2059397;28;20215;-67
2021/07/15 05:09:40;;;;;;;1.33;1.23;;;;;24.20;100015.00;;;;2059398;28;20227;-66
2021/07/15 05:10:41;;;;;;;1.83;1.30;;;;;24.10;100014.00;;;;2059007;28;20214;-65
2021/07/15 05:11:42;;;;;;;1.20;1.10;;;;;24.20;100015.00;;;;2059313;28;20705;-65
2021/07/15 05:12:42;;;;;;;1.53;0.77;;;;;24.20;100018.00;;;;2050181;28;20221;-66
2021/07/15 05:13:43;;;;;;;1.10;1.00;;;;;24.20;100014.00;;;;2049994;28;20718;-66
2021/07/15 05:14:43;;;;;;;1.00;0.90;;;;;24.20;100011.00;;;;2049834;28;20706;-66
2021/07/15 05:15:48;;;;;;;1.07;0.97;;;;;24.20;100012.00;;;;2050287;28;20637;-66